| time (UTC) | temp C | wind direction | speed KPH | gust KPH | rain 1hr cm | rain 24hr cm | rain mn cm | humidity % | barometer mb |
| 20260503071531 | 2 | 180 | 0.0 | 0.0 | 0.00 | 0.03 | 0.00 | 74 | 1010.1 |
| 20260503070531 | 2 | 180 | 0.0 | 0.0 | 0.00 | 0.03 | 0.00 | 75 | 1010.3 |
| 20260503054631 | 1 | 180 | 0.0 | 0.0 | 0.00 | 0.03 | 0.00 | 79 | 1011.0 |
| 20260503053729 | 1 | 180 | 0.0 | 0.0 | 0.00 | 0.03 | 0.00 | 77 | 1011.1 |
| 20260503052829 | 1 | 180 | 0.0 | 0.0 | 0.00 | 0.03 | 0.00 | 76 | 1011.3 |
| 20260503050929 | 1 | 180 | 0.0 | 0.0 | 0.00 | 0.03 | 0.00 | 74 | 1011.5 |
| 20260503050011 | 1 | 180 | 0.0 | 0.0 | 0.00 | 0.03 | 0.00 | 73 | 1011.7 |
| 20260503045011 | 2 | 180 | 0.0 | 0.0 | 0.00 | 0.03 | 0.03 | 72 | 1011.6 |
| 20260503044108 | 2 | 180 | 0.0 | 0.0 | 0.00 | 0.03 | 0.03 | 71 | 1011.8 |
| 20260503043110 | 2 | 180 | 0.0 | 0.0 | 0.00 | 0.03 | 0.03 | 71 | 1011.9 |
| 20260503042112 | 2 | 180 | 0.0 | 0.0 | 0.00 | 0.03 | 0.03 | 68 | 1012.0 |
| 20260503041111 | 3 | 180 | 0.0 | 0.0 | 0.00 | 0.03 | 0.03 | 67 | 1012.2 |
| 20260503040110 | 3 | 180 | 0.0 | 0.0 | 0.00 | 0.03 | 0.03 | 66 | 1012.2 |
| 20260503035109 | 3 | 180 | 1.6 | 3.2 | 0.00 | 0.03 | 0.03 | 64 | 1012.6 |
| 20260503033209 | 4 | 135 | 0.0 | 0.0 | 0.00 | 0.03 | 0.03 | 62 | 1012.9 |
| 20260503032308 | 5 | 135 | 0.0 | 0.0 | 0.00 | 0.03 | 0.03 | 62 | 1013.1 |
| 20260503030310 | 5 | 129 | 0.0 | 3.2 | 0.00 | 0.03 | 0.03 | 61 | 1013.4 |
| 20260503025311 | 5 | 135 | 0.0 | 3.2 | 0.00 | 0.03 | 0.03 | 60 | 1013.4 |
| 20260503024408 | 5 | 67 | 0.0 | 1.6 | 0.00 | 0.03 | 0.03 | 60 | 1013.6 |
| 20260503022509 | 6 | 93 | 0.0 | 1.6 | 0.00 | 0.03 | 0.03 | 59 | 1013.7 |
| 20260503022413 | 6 | 67 | 0.0 | 1.6 | 0.00 | 0.03 | 0.03 | 59 | 1013.8 |
| 20260503021411 | 6 | 142 | 1.6 | 4.8 | 0.00 | 0.03 | 0.03 | 58 | 1013.8 |
| 20260503020409 | 6 | 90 | 3.2 | 6.4 | 0.00 | 0.03 | 0.03 | 57 | 1013.8 |
| 20260503014310 | 7 | 140 | 0.0 | 3.2 | 0.00 | 0.03 | 0.03 | 54 | 1013.5 |
| 20260503013310 | 7 | 107 | 4.8 | 6.4 | 0.00 | 0.03 | 0.03 | 51 | 1013.4 |
| 20260503012310 | 8 | 104 | 4.8 | 6.4 | 0.00 | 0.03 | 0.03 | 48 | 1013.5 |
| 20260503011409 | 9 | 90 | 1.6 | 3.2 | 0.00 | 0.03 | 0.03 | 45 | 1013.4 |
| 20260503010410 | 10 | 105 | 4.8 | 11.3 | 0.00 | 0.03 | 0.03 | 39 | 1013.5 |
| 20260503005411 | 11 | 48 | 1.6 | 6.4 | 0.00 | 0.03 | 0.03 | 31 | 1013.4 |
| 20260503003411 | 13 | 270 | 0.0 | 0.0 | 0.00 | 0.03 | 0.03 | 28 | 1013.6 |
| 20260503002508 | 13 | 315 | 0.0 | 1.6 | 0.00 | 0.03 | 0.03 | 28 | 1013.7 |
| 20260503001510 | 13 | 315 | 1.6 | 3.2 | 0.00 | 0.03 | 0.03 | 27 | 1013.8 |
| 20260502235609 | 13 | 322 | 4.8 | 6.4 | 0.00 | 0.03 | 0.03 | 27 | 1013.8 |
| 20260502234708 | 13 | 323 | 4.8 | 8.0 | 0.00 | 0.03 | 0.03 | 27 | 1013.8 |
| 20260502233711 | 13 | 243 | 3.2 | 6.4 | 0.00 | 0.03 | 0.03 | 28 | 1014.0 |
| 20260502232711 | 13 | 315 | 1.6 | 4.8 | 0.00 | 0.03 | 0.03 | 28 | 1014.0 |
| 20260502231710 | 13 | 315 | 0.0 | 1.6 | 0.00 | 0.03 | 0.03 | 28 | 1014.1 |
| 20260502230711 | 13 | 315 | 0.0 | 1.6 | 0.00 | 0.03 | 0.03 | 27 | 1014.2 |
| 20260502225809 | 13 | 292 | 1.6 | 3.2 | 0.00 | 0.03 | 0.03 | 26 | 1014.3 |
| 20260502223810 | 14 | 267 | 3.2 | 6.4 | 0.00 | 0.03 | 0.03 | 25 | 1014.4 |
| 20260502222811 | 14 | 296 | 4.8 | 9.7 | 0.00 | 0.03 | 0.03 | 26 | 1014.4 |
| 20260502221909 | 15 | 307 | 6.4 | 9.7 | 0.00 | 0.03 | 0.03 | 27 | 1014.5 |
| 20260502220910 | 14 | 303 | 4.8 | 8.0 | 0.00 | 0.03 | 0.03 | 27 | 1014.6 |
| 20260502220010 | 14 | 316 | 9.7 | 16.1 | 0.00 | 0.03 | 0.03 | 26 | 1014.6 |
| 20260502214010 | 15 | 311 | 8.0 | 14.5 | 0.00 | 0.03 | 0.03 | 25 | 1014.6 |
| 20260502213010 | 14 | 270 | 0.0 | 1.6 | 0.00 | 0.03 | 0.03 | 27 | 1014.7 |
| 20260502212012 | 14 | 331 | 4.8 | 9.7 | 0.00 | 0.03 | 0.03 | 27 | 1014.9 |
| 20260502211010 | 13 | 295 | 6.4 | 8.0 | 0.00 | 0.03 | 0.03 | 28 | 1015.0 |
| 20260502210010 | 13 | 308 | 3.2 | 8.0 | 0.00 | 0.03 | 0.03 | 28 | 1015.0 |
| 20260502205009 | 13 | 316 | 3.2 | 6.4 | 0.00 | 0.03 | 0.03 | 29 | 1015.3 |
| 20260502203110 | 13 | 315 | 3.2 | 6.4 | 0.00 | 0.03 | 0.03 | 27 | 1015.6 |
| 20260502201210 | 12 | 289 | 4.8 | 8.0 | 0.00 | 0.03 | 0.03 | 29 | 1016.0 |
| 20260502200209 | 13 | 262 | 6.4 | 9.7 | 0.00 | 0.03 | 0.03 | 28 | 1016.1 |
| 20260502200111 | 13 | 258 | 8.0 | 11.3 | 0.00 | 0.03 | 0.03 | 28 | 1016.1 |
| 20260502195209 | 13 | 339 | 11.3 | 14.5 | 0.00 | 0.03 | 0.03 | 29 | 1016.4 |
| 20260502194308 | 13 | 225 | 6.4 | 9.7 | 0.00 | 0.03 | 0.03 | 29 | 1016.6 |
| 20260502193309 | 13 | 303 | 4.8 | 8.0 | 0.00 | 0.03 | 0.03 | 29 | 1016.7 |
| 20260502192311 | 12 | 225 | 0.0 | 1.6 | 0.00 | 0.03 | 0.03 | 30 | 1016.8 |
| 20260502191309 | 12 | 315 | 4.8 | 8.0 | 0.00 | 0.03 | 0.03 | 30 | 1017.0 |
| 20260502190312 | 13 | 318 | 6.4 | 9.7 | 0.00 | 0.03 | 0.03 | 29 | 1017.1 |
| 20260502185410 | 12 | 358 | 4.8 | 9.7 | 0.00 | 0.03 | 0.03 | 31 | 1017.2 |
| 20260502184412 | 12 | 310 | 8.0 | 16.1 | 0.00 | 0.03 | 0.03 | 30 | 1017.3 |
| 20260502183411 | 12 | 324 | 6.4 | 9.7 | 0.00 | 0.03 | 0.03 | 31 | 1017.5 |
| 20260502182509 | 12 | 230 | 1.6 | 6.4 | 0.00 | 0.03 | 0.03 | 32 | 1017.6 |
| 20260502181509 | 12 | 244 | 6.4 | 11.3 | 0.03 | 0.03 | 0.03 | 32 | 1017.6 |
| 20260502180608 | 11 | 282 | 6.4 | 8.0 | 0.03 | 0.03 | 0.03 | 31 | 1017.9 |
| 20260502163809 | 9 | 307 | 4.8 | 8.0 | 0.00 | 0.00 | 0.00 | 36 | 1019.0 |
| 20260502162811 | 10 | 32 | 0.0 | 3.2 | 0.00 | 0.00 | 0.00 | 35 | 1019.1 |
| 20260502162708 | 10 | 346 | 6.4 | 11.3 | 0.00 | 0.00 | 0.00 | 35 | 1019.0 |
| 20260502161710 | 10 | 346 | 6.4 | 12.9 | 0.00 | 0.00 | 0.00 | 36 | 1019.2 |
| 20260502160809 | 10 | 10 | 4.8 | 8.0 | 0.00 | 0.00 | 0.00 | 36 | 1019.3 |
| 20260502150910 | 8 | 312 | 6.4 | 11.3 | 0.00 | 0.00 | 0.00 | 41 | 1019.8 |
| 20260502140109 | 6 | 301 | 3.2 | 6.4 | 0.00 | 0.00 | 0.00 | 51 | 1020.6 |
| 20260502130210 | 0 | 337 | 3.2 | 4.8 | 0.00 | 0.00 | 0.00 | 74 | 1020.2 |
| 20260502122309 | -2 | 315 | 1.6 | 3.2 | 0.00 | 0.00 | 0.00 | 86 | 1019.8 |
| 20260502121311 | -3 | 315 | 0.0 | 0.0 | 0.00 | 0.00 | 0.00 | 90 | 1019.7 |
| 20260502120408 | -3 | 315 | 0.0 | 1.6 | 0.00 | 0.00 | 0.00 | 93 | 1019.7 |
| 20260502115410 | -4 | 315 | 0.0 | 1.6 | 0.00 | 0.00 | 0.00 | 95 | 1019.6 |
| 20260502113411 | -5 | 315 | 0.0 | 0.0 | 0.00 | 0.00 | 0.00 | 96 | 1019.5 |
| 20260502112509 | -5 | 315 | 0.0 | 0.0 | 0.00 | 0.00 | 0.00 | 96 | 1019.5 |
| 20260502111607 | -6 | 315 | 0.0 | 0.0 | 0.00 | 0.00 | 0.00 | 95 | 1019.3 |
| 20260502111509 | -6 | 315 | 0.0 | 0.0 | 0.00 | 0.00 | 0.00 | 95 | 1019.3 |
| 20260502110511 | -6 | 315 | 0.0 | 0.0 | 0.00 | 0.00 | 0.00 | 94 | 1019.3 |
| 20260502105511 | -6 | 315 | 0.0 | 0.0 | 0.00 | 0.00 | 0.00 | 94 | 1019.2 |
| 20260502103511 | -6 | 315 | 0.0 | 0.0 | 0.00 | 0.00 | 0.00 | 95 | 1019.3 |
| 20260502102510 | -5 | 315 | 0.0 | 0.0 | 0.00 | 0.00 | 0.00 | 95 | 1019.2 |
| 20260502100609 | -6 | 315 | 0.0 | 0.0 | 0.00 | 0.00 | 0.00 | 94 | 1019.3 |
| 20260502100511 | -6 | 315 | 0.0 | 0.0 | 0.00 | 0.00 | 0.00 | 94 | 1019.3 |
| 20260502091509 | -5 | 315 | 0.0 | 0.0 | 0.00 | 0.00 | 0.00 | 94 | 1019.1 |
| 20260502090512 | -5 | 315 | 0.0 | 0.0 | 0.00 | 0.00 | 0.00 | 93 | 1019.2 |